sensor_id;sensor_type;location;lat;lon;timestamp;temperature;humidity
39695;DHT22;25367;-35.352;149.036;2022-12-18T00:01:58;22.40;47.50
39695;DHT22;25367;-35.352;149.036;2022-12-18T00:04:28;22.50;47.40
39695;DHT22;25367;-35.352;149.036;2022-12-18T00:06:58;22.50;47.50
39695;DHT22;25367;-35.352;149.036;2022-12-18T00:09:28;22.60;47.50
39695;DHT22;25367;-35.352;149.036;2022-12-18T00:11:57;22.70;47.50
39695;DHT22;25367;-35.352;149.036;2022-12-18T00:14:29;22.70;47.70
39695;DHT22;25367;-35.352;149.036;2022-12-18T00:16:59;22.80;47.50
39695;DHT22;25367;-35.352;149.036;2022-12-18T00:19:28;22.80;47.40
39695;DHT22;25367;-35.352;149.036;2022-12-18T00:21:58;22.80;47.20
39695;DHT22;25367;-35.352;149.036;2022-12-18T00:24:28;22.90;47.10
39695;DHT22;25367;-35.352;149.036;2022-12-18T00:26:57;22.90;47.00
39695;DHT22;25367;-35.352;149.036;2022-12-18T00:29:29;22.90;46.90
39695;DHT22;25367;-35.352;149.036;2022-12-18T00:31:59;22.90;46.90
39695;DHT22;25367;-35.352;149.036;2022-12-18T00:34:28;22.90;46.90
39695;DHT22;25367;-35.352;149.036;2022-12-18T00:36:58;22.90;46.90
39695;DHT22;25367;-35.352;149.036;2022-12-18T00:39:27;22.90;46.80
39695;DHT22;25367;-35.352;149.036;2022-12-18T00:41:57;22.90;46.80
39695;DHT22;25367;-35.352;149.036;2022-12-18T00:44:30;22.90;46.70
39695;DHT22;25367;-35.352;149.036;2022-12-18T00:47:00;22.90;46.70
39695;DHT22;25367;-35.352;149.036;2022-12-18T00:49:29;22.90;46.80
39695;DHT22;25367;-35.352;149.036;2022-12-18T00:51:59;22.90;46.80
39695;DHT22;25367;-35.352;149.036;2022-12-18T00:54:28;22.90;46.80
39695;DHT22;25367;-35.352;149.036;2022-12-18T00:56:59;22.90;46.90
39695;DHT22;25367;-35.352;149.036;2022-12-18T00:59:31;22.80;46.80
39695;DHT22;25367;-35.352;149.036;2022-12-18T01:02:00;22.90;46.80
39695;DHT22;25367;-35.352;149.036;2022-12-18T01:04:32;22.80;46.80
39695;DHT22;25367;-35.352;149.036;2022-12-18T01:07:02;22.90;47.40
39695;DHT22;25367;-35.352;149.036;2022-12-18T01:09:32;22.80;46.80
39695;DHT22;25367;-35.352;149.036;2022-12-18T01:12:02;22.80;46.80
39695;DHT22;25367;-35.352;149.036;2022-12-18T01:14:34;22.80;46.80
39695;DHT22;25367;-35.352;149.036;2022-12-18T01:17:04;22.80;46.80
39695;DHT22;25367;-35.352;149.036;2022-12-18T01:19:35;22.80;47.40
39695;DHT22;25367;-35.352;149.036;2022-12-18T01:22:06;22.80;46.80
39695;DHT22;25367;-35.352;149.036;2022-12-18T01:24:36;22.70;46.80
39695;DHT22;25367;-35.352;149.036;2022-12-18T01:27:05;22.80;46.80
39695;DHT22;25367;-35.352;149.036;2022-12-18T01:29:37;22.70;46.80
39695;DHT22;25367;-35.352;149.036;2022-12-18T01:32:07;22.70;46.80
39695;DHT22;25367;-35.352;149.036;2022-12-18T01:34:37;22.70;46.80
39695;DHT22;25367;-35.352;149.036;2022-12-18T01:37:07;22.70;46.70
39695;DHT22;25367;-35.352;149.036;2022-12-18T01:39:37;22.70;46.70
39695;DHT22;25367;-35.352;149.036;2022-12-18T01:42:11;22.70;46.60
39695;DHT22;25367;-35.352;149.036;2022-12-18T01:45:00;22.70;46.60
39695;DHT22;25367;-35.352;149.036;2022-12-18T01:47:38;22.70;47.10
39695;DHT22;25367;-35.352;149.036;2022-12-18T01:50:11;22.70;46.60
39695;DHT22;25367;-35.352;149.036;2022-12-18T01:52:42;22.60;46.40
39695;DHT22;25367;-35.352;149.036;2022-12-18T01:55:13;22.60;46.50
39695;DHT22;25367;-35.352;149.036;2022-12-18T01:57:44;22.60;46.50
39695;DHT22;25367;-35.352;149.036;2022-12-18T02:00:18;22.60;46.40
39695;DHT22;25367;-35.352;149.036;2022-12-18T02:02:48;22.60;46.10
39695;DHT22;25367;-35.352;149.036;2022-12-18T02:05:21;22.60;46.10
39695;DHT22;25367;-35.352;149.036;2022-12-18T02:07:59;22.60;46.10
39695;DHT22;25367;-35.352;149.036;2022-12-18T02:10:39;22.60;46.20
39695;DHT22;25367;-35.352;149.036;2022-12-18T02:13:14;22.60;46.00
39695;DHT22;25367;-35.352;149.036;2022-12-18T02:15:56;22.60;46.00
39695;DHT22;25367;-35.352;149.036;2022-12-18T02:18:30;22.60;45.60
39695;DHT22;25367;-35.352;149.036;2022-12-18T02:21:07;22.60;45.50
39695;DHT22;25367;-35.352;149.036;2022-12-18T02:23:51;22.60;45.70
39695;DHT22;25367;-35.352;149.036;2022-12-18T02:26:30;22.60;45.50
39695;DHT22;25367;-35.352;149.036;2022-12-18T02:29:03;22.60;45.60
39695;DHT22;25367;-35.352;149.036;2022-12-18T02:31:41;22.60;45.60
39695;DHT22;25367;-35.352;149.036;2022-12-18T02:34:13;22.60;45.60
39695;DHT22;25367;-35.352;149.036;2022-12-18T02:36:44;22.60;46.10
39695;DHT22;25367;-35.352;149.036;2022-12-18T02:39:16;22.60;45.40
39695;DHT22;25367;-35.352;149.036;2022-12-18T02:42:01;22.60;45.50
39695;DHT22;25367;-35.352;149.036;2022-12-18T02:44:31;22.60;45.50
39695;DHT22;25367;-35.352;149.036;2022-12-18T02:47:01;22.70;45.50
39695;DHT22;25367;-35.352;149.036;2022-12-18T02:49:36;22.70;45.50
39695;DHT22;25367;-35.352;149.036;2022-12-18T02:52:13;22.70;45.60
39695;DHT22;25367;-35.352;149.036;2022-12-18T02:55:05;22.70;45.60
39695;DHT22;25367;-35.352;149.036;2022-12-18T02:57:43;22.70;45.60
39695;DHT22;25367;-35.352;149.036;2022-12-18T03:00:16;22.70;45.60
39695;DHT22;25367;-35.352;149.036;2022-12-18T03:02:48;22.70;45.60
39695;DHT22;25367;-35.352;149.036;2022-12-18T03:05:23;22.70;45.50
39695;DHT22;25367;-35.352;149.036;2022-12-18T03:07:58;22.70;45.50
39695;DHT22;25367;-35.352;149.036;2022-12-18T03:10:36;22.70;45.50
39695;DHT22;25367;-35.352;149.036;2022-12-18T03:13:13;22.70;45.50
39695;DHT22;25367;-35.352;149.036;2022-12-18T03:15:47;22.70;45.50
39695;DHT22;25367;-35.352;149.036;2022-12-18T03:18:19;22.70;45.40
39695;DHT22;25367;-35.352;149.036;2022-12-18T03:20:50;22.70;45.40
39695;DHT22;25367;-35.352;149.036;2022-12-18T03:23:25;22.70;45.30
39695;DHT22;25367;-35.352;149.036;2022-12-18T03:25:59;22.80;45.50
39695;DHT22;25367;-35.352;149.036;2022-12-18T03:28:33;22.80;45.50
39695;DHT22;25367;-35.352;149.036;2022-12-18T03:31:09;22.80;45.40
39695;DHT22;25367;-35.352;149.036;2022-12-18T03:33:41;22.80;45.40
39695;DHT22;25367;-35.352;149.036;2022-12-18T03:36:12;22.80;45.30
39695;DHT22;25367;-35.352;149.036;2022-12-18T03:38:42;22.80;45.30
39695;DHT22;25367;-35.352;149.036;2022-12-18T03:41:16;22.90;45.40
39695;DHT22;25367;-35.352;149.036;2022-12-18T03:44:13;22.80;45.20
39695;DHT22;25367;-35.352;149.036;2022-12-18T03:46:52;22.80;45.20
39695;DHT22;25367;-35.352;149.036;2022-12-18T03:49:28;22.80;45.20
39695;DHT22;25367;-35.352;149.036;2022-12-18T03:52:04;22.90;45.10
39695;DHT22;25367;-35.352;149.036;2022-12-18T03:54:34;22.90;45.20
39695;DHT22;25367;-35.352;149.036;2022-12-18T03:57:15;22.80;45.50
39695;DHT22;25367;-35.352;149.036;2022-12-18T03:59:56;22.80;45.40
39695;DHT22;25367;-35.352;149.036;2022-12-18T04:02:32;22.90;45.30
39695;DHT22;25367;-35.352;149.036;2022-12-18T04:05:05;22.90;45.20
39695;DHT22;25367;-35.352;149.036;2022-12-18T04:07:39;23.00;45.30
39695;DHT22;25367;-35.352;149.036;2022-12-18T04:10:12;22.90;45.10
39695;DHT22;25367;-35.352;149.036;2022-12-18T04:12:42;23.00;45.20
39695;DHT22;25367;-35.352;149.036;2022-12-18T04:15:16;23.00;45.10
39695;DHT22;25367;-35.352;149.036;2022-12-18T04:17:49;23.00;45.10
39695;DHT22;25367;-35.352;149.036;2022-12-18T04:20:22;23.00;45.20
39695;DHT22;25367;-35.352;149.036;2022-12-18T04:22:52;23.10;45.30
39695;DHT22;25367;-35.352;149.036;2022-12-18T04:25:23;23.10;45.40
39695;DHT22;25367;-35.352;149.036;2022-12-18T04:28:03;23.10;45.30
39695;DHT22;25367;-35.352;149.036;2022-12-18T04:30:34;23.10;45.20
39695;DHT22;25367;-35.352;149.036;2022-12-18T04:33:05;23.20;45.20
39695;DHT22;25367;-35.352;149.036;2022-12-18T04:35:37;23.20;45.20
39695;DHT22;25367;-35.352;149.036;2022-12-18T04:38:07;23.20;45.20
39695;DHT22;25367;-35.352;149.036;2022-12-18T04:40:38;23.20;45.20
39695;DHT22;25367;-35.352;149.036;2022-12-18T04:43:14;23.20;45.10
39695;DHT22;25367;-35.352;149.036;2022-12-18T04:45:45;23.20;45.10
39695;DHT22;25367;-35.352;149.036;2022-12-18T04:48:16;23.20;45.10
39695;DHT22;25367;-35.352;149.036;2022-12-18T04:50:46;23.30;45.10
39695;DHT22;25367;-35.352;149.036;2022-12-18T04:53:17;23.20;45.00
39695;DHT22;25367;-35.352;149.036;2022-12-18T04:55:46;23.30;45.10
39695;DHT22;25367;-35.352;149.036;2022-12-18T04:58:16;23.30;45.10
39695;DHT22;25367;-35.352;149.036;2022-12-18T05:00:47;23.30;45.60
39695;DHT22;25367;-35.352;149.036;2022-12-18T05:03:17;23.30;45.00
39695;DHT22;25367;-35.352;149.036;2022-12-18T05:05:50;23.30;45.00
39695;DHT22;25367;-35.352;149.036;2022-12-18T05:08:20;23.40;45.00
39695;DHT22;25367;-35.352;149.036;2022-12-18T05:10:50;23.40;45.10
39695;DHT22;25367;-35.352;149.036;2022-12-18T05:13:27;23.30;45.00
39695;DHT22;25367;-35.352;149.036;2022-12-18T05:16:00;23.30;45.10
39695;DHT22;25367;-35.352;149.036;2022-12-18T05:18:28;23.40;45.10
39695;DHT22;25367;-35.352;149.036;2022-12-18T05:20:58;23.30;45.30
39695;DHT22;25367;-35.352;149.036;2022-12-18T05:23:28;23.30;45.40
39695;DHT22;25367;-35.352;149.036;2022-12-18T05:25:59;23.30;45.20
39695;DHT22;25367;-35.352;149.036;2022-12-18T05:28:31;23.40;45.20
39695;DHT22;25367;-35.352;149.036;2022-12-18T05:31:04;23.50;45.20
39695;DHT22;25367;-35.352;149.036;2022-12-18T05:33:35;23.50;45.20
39695;DHT22;25367;-35.352;149.036;2022-12-18T05:36:06;23.50;45.20
39695;DHT22;25367;-35.352;149.036;2022-12-18T05:38:37;23.50;45.20
39695;DHT22;25367;-35.352;149.036;2022-12-18T05:41:06;23.50;45.20
39695;DHT22;25367;-35.352;149.036;2022-12-18T05:43:37;23.60;45.20
39695;DHT22;25367;-35.352;149.036;2022-12-18T05:46:14;23.60;45.30
39695;DHT22;25367;-35.352;149.036;2022-12-18T05:48:44;23.60;45.30
39695;DHT22;25367;-35.352;149.036;2022-12-18T05:51:16;23.60;45.30
39695;DHT22;25367;-35.352;149.036;2022-12-18T05:53:46;23.70;45.30
39695;DHT22;25367;-35.352;149.036;2022-12-18T05:56:17;23.70;45.40
39695;DHT22;25367;-35.352;149.036;2022-12-18T05:58:47;23.70;45.30
39695;DHT22;25367;-35.352;149.036;2022-12-18T06:01:24;23.70;45.40
39695;DHT22;25367;-35.352;149.036;2022-12-18T06:03:53;23.80;45.50
39695;DHT22;25367;-35.352;149.036;2022-12-18T06:06:23;23.70;45.60
39695;DHT22;25367;-35.352;149.036;2022-12-18T06:08:54;23.70;45.70
39695;DHT22;25367;-35.352;149.036;2022-12-18T06:11:25;23.80;45.80
39695;DHT22;25367;-35.352;149.036;2022-12-18T06:13:56;23.90;45.80
39695;DHT22;25367;-35.352;149.036;2022-12-18T06:16:28;23.90;45.70
39695;DHT22;25367;-35.352;149.036;2022-12-18T06:18:58;24.00;45.70
39695;DHT22;25367;-35.352;149.036;2022-12-18T06:21:28;24.00;45.60
39695;DHT22;25367;-35.352;149.036;2022-12-18T06:23:58;24.10;45.70
39695;DHT22;25367;-35.352;149.036;2022-12-18T06:26:29;24.10;45.70
39695;DHT22;25367;-35.352;149.036;2022-12-18T06:28:58;24.10;45.70
39695;DHT22;25367;-35.352;149.036;2022-12-18T06:31:32;24.20;45.70
39695;DHT22;25367;-35.352;149.036;2022-12-18T06:34:04;24.20;45.80
39695;DHT22;25367;-35.352;149.036;2022-12-18T06:36:34;24.20;45.80
39695;DHT22;25367;-35.352;149.036;2022-12-18T06:39:04;24.30;46.00
39695;DHT22;25367;-35.352;149.036;2022-12-18T06:41:33;24.30;45.90
39695;DHT22;25367;-35.352;149.036;2022-12-18T06:44:04;24.30;46.10
39695;DHT22;25367;-35.352;149.036;2022-12-18T06:46:35;24.30;46.10
39695;DHT22;25367;-35.352;149.036;2022-12-18T06:49:05;24.40;46.10
39695;DHT22;25367;-35.352;149.036;2022-12-18T06:51:35;24.50;46.10
39695;DHT22;25367;-35.352;149.036;2022-12-18T06:54:05;24.50;46.20
39695;DHT22;25367;-35.352;149.036;2022-12-18T06:56:35;24.50;46.20
39695;DHT22;25367;-35.352;149.036;2022-12-18T06:59:04;24.60;46.30
39695;DHT22;25367;-35.352;149.036;2022-12-18T07:01:38;24.60;46.10
39695;DHT22;25367;-35.352;149.036;2022-12-18T07:04:08;24.60;46.10
39695;DHT22;25367;-35.352;149.036;2022-12-18T07:06:38;24.60;46.10
39695;DHT22;25367;-35.352;149.036;2022-12-18T07:09:07;24.60;46.10
39695;DHT22;25367;-35.352;149.036;2022-12-18T07:11:37;24.60;46.10
39695;DHT22;25367;-35.352;149.036;2022-12-18T07:14:07;24.70;46.70
39695;DHT22;25367;-35.352;149.036;2022-12-18T07:16:38;24.70;46.20
39695;DHT22;25367;-35.352;149.036;2022-12-18T07:19:08;24.70;46.70
39695;DHT22;25367;-35.352;149.036;2022-12-18T07:21:38;24.80;46.80
39695;DHT22;25367;-35.352;149.036;2022-12-18T07:24:08;24.90;46.60
39695;DHT22;25367;-35.352;149.036;2022-12-18T07:26:38;24.90;46.50
39695;DHT22;25367;-35.352;149.036;2022-12-18T07:29:08;24.90;46.40
39695;DHT22;25367;-35.352;149.036;2022-12-18T07:31:40;25.00;46.30
39695;DHT22;25367;-35.352;149.036;2022-12-18T07:34:12;25.00;46.50
39695;DHT22;25367;-35.352;149.036;2022-12-18T07:36:42;25.00;46.20
39695;DHT22;25367;-35.352;149.036;2022-12-18T07:39:13;25.00;46.20
39695;DHT22;25367;-35.352;149.036;2022-12-18T07:41:44;25.00;46.40
39695;DHT22;25367;-35.352;149.036;2022-12-18T07:44:16;25.10;46.50
39695;DHT22;25367;-35.352;149.036;2022-12-18T07:46:48;25.10;46.50
39695;DHT22;25367;-35.352;149.036;2022-12-18T07:49:19;25.10;46.50
39695;DHT22;25367;-35.352;149.036;2022-12-18T07:51:49;25.20;46.70
39695;DHT22;25367;-35.352;149.036;2022-12-18T07:54:19;25.20;46.60
39695;DHT22;25367;-35.352;149.036;2022-12-18T07:56:49;25.20;46.60
39695;DHT22;25367;-35.352;149.036;2022-12-18T07:59:19;25.30;46.60
39695;DHT22;25367;-35.352;149.036;2022-12-18T08:01:51;25.30;46.60
39695;DHT22;25367;-35.352;149.036;2022-12-18T08:04:21;25.30;46.60
39695;DHT22;25367;-35.352;149.036;2022-12-18T08:06:50;25.30;46.60
39695;DHT22;25367;-35.352;149.036;2022-12-18T08:09:20;25.30;46.50
39695;DHT22;25367;-35.352;149.036;2022-12-18T08:11:50;25.30;46.60
39695;DHT22;25367;-35.352;149.036;2022-12-18T08:14:19;25.30;46.50
39695;DHT22;25367;-35.352;149.036;2022-12-18T08:16:51;25.30;46.50
39695;DHT22;25367;-35.352;149.036;2022-12-18T08:19:21;25.40;46.60
39695;DHT22;25367;-35.352;149.036;2022-12-18T08:21:51;25.30;46.40
39695;DHT22;25367;-35.352;149.036;2022-12-18T08:24:20;25.40;46.50
39695;DHT22;25367;-35.352;149.036;2022-12-18T08:26:50;25.40;46.40
39695;DHT22;25367;-35.352;149.036;2022-12-18T08:29:19;25.40;46.20
39695;DHT22;25367;-35.352;149.036;2022-12-18T08:31:52;25.40;46.10
39695;DHT22;25367;-35.352;149.036;2022-12-18T08:34:22;25.40;46.10
39695;DHT22;25367;-35.352;149.036;2022-12-18T08:36:52;25.40;45.90
39695;DHT22;25367;-35.352;149.036;2022-12-18T08:39:22;25.40;45.90
39695;DHT22;25367;-35.352;149.036;2022-12-18T08:41:51;25.40;45.60
39695;DHT22;25367;-35.352;149.036;2022-12-18T08:44:21;25.40;45.50
39695;DHT22;25367;-35.352;149.036;2022-12-18T08:46:53;25.40;45.40
39695;DHT22;25367;-35.352;149.036;2022-12-18T08:49:23;25.40;45.40
39695;DHT22;25367;-35.352;149.036;2022-12-18T08:51:56;25.40;45.40
39695;DHT22;25367;-35.352;149.036;2022-12-18T08:54:26;25.40;45.60
39695;DHT22;25367;-35.352;149.036;2022-12-18T08:56:56;25.40;45.60
39695;DHT22;25367;-35.352;149.036;2022-12-18T08:59:26;25.30;45.50
39695;DHT22;25367;-35.352;149.036;2022-12-18T09:01:58;25.30;45.50
39695;DHT22;25367;-35.352;149.036;2022-12-18T09:04:28;25.30;45.50
39695;DHT22;25367;-35.352;149.036;2022-12-18T09:06:57;25.30;45.50
39695;DHT22;25367;-35.352;149.036;2022-12-18T09:09:27;25.30;45.50
39695;DHT22;25367;-35.352;149.036;2022-12-18T09:11:57;25.20;45.40
39695;DHT22;25367;-35.352;149.036;2022-12-18T09:14:27;25.20;45.40
39695;DHT22;25367;-35.352;149.036;2022-12-18T09:16:59;25.20;45.40
39695;DHT22;25367;-35.352;149.036;2022-12-18T09:19:29;25.20;45.30
39695;DHT22;25367;-35.352;149.036;2022-12-18T09:22:03;25.20;45.30
39695;DHT22;25367;-35.352;149.036;2022-12-18T09:24:32;25.20;45.30
39695;DHT22;25367;-35.352;149.036;2022-12-18T09:27:02;25.20;45.30
39695;DHT22;25367;-35.352;149.036;2022-12-18T09:29:32;25.10;45.20
39695;DHT22;25367;-35.352;149.036;2022-12-18T09:32:05;25.10;45.20
39695;DHT22;25367;-35.352;149.036;2022-12-18T09:34:33;25.10;45.20
39695;DHT22;25367;-35.352;149.036;2022-12-18T09:37:03;25.10;45.40
39695;DHT22;25367;-35.352;149.036;2022-12-18T09:39:33;25.00;45.60
39695;DHT22;25367;-35.352;149.036;2022-12-18T09:42:03;25.10;45.50
39695;DHT22;25367;-35.352;149.036;2022-12-18T09:44:34;25.10;46.00
39695;DHT22;25367;-35.352;149.036;2022-12-18T09:47:12;25.10;45.90
39695;DHT22;25367;-35.352;149.036;2022-12-18T09:49:44;25.10;45.50
39695;DHT22;25367;-35.352;149.036;2022-12-18T09:52:17;25.10;45.40
39695;DHT22;25367;-35.352;149.036;2022-12-18T09:54:52;25.10;45.30
39695;DHT22;25367;-35.352;149.036;2022-12-18T09:57:23;25.10;45.40
39695;DHT22;25367;-35.352;149.036;2022-12-18T09:59:56;25.10;46.10
39695;DHT22;25367;-35.352;149.036;2022-12-18T10:02:32;25.10;45.70
39695;DHT22;25367;-35.352;149.036;2022-12-18T10:05:05;25.10;45.60
39695;DHT22;25367;-35.352;149.036;2022-12-18T10:07:47;25.20;45.40
39695;DHT22;25367;-35.352;149.036;2022-12-18T10:10:31;25.20;45.40
39695;DHT22;25367;-35.352;149.036;2022-12-18T10:13:15;25.20;45.40
39695;DHT22;25367;-35.352;149.036;2022-12-18T10:16:00;25.20;45.20
39695;DHT22;25367;-35.352;149.036;2022-12-18T10:18:49;25.20;45.50
39695;DHT22;25367;-35.352;149.036;2022-12-18T10:21:26;25.20;45.20
39695;DHT22;25367;-35.352;149.036;2022-12-18T10:24:08;25.20;45.20
39695;DHT22;25367;-35.352;149.036;2022-12-18T10:26:40;25.20;45.10
39695;DHT22;25367;-35.352;149.036;2022-12-18T10:29:12;25.10;45.20
39695;DHT22;25367;-35.352;149.036;2022-12-18T10:31:42;25.20;45.20
39695;DHT22;25367;-35.352;149.036;2022-12-18T10:34:14;25.10;44.90
39695;DHT22;25367;-35.352;149.036;2022-12-18T10:36:43;25.20;44.90
39695;DHT22;25367;-35.352;149.036;2022-12-18T10:39:17;25.20;44.90
39695;DHT22;25367;-35.352;149.036;2022-12-18T10:41:47;25.20;44.90
39695;DHT22;25367;-35.352;149.036;2022-12-18T10:44:19;25.20;44.90
39695;DHT22;25367;-35.352;149.036;2022-12-18T10:46:50;25.20;45.00
39695;DHT22;25367;-35.352;149.036;2022-12-18T10:49:26;25.20;45.00
39695;DHT22;25367;-35.352;149.036;2022-12-18T10:52:11;25.20;45.30
39695;DHT22;25367;-35.352;149.036;2022-12-18T10:54:48;25.20;45.30
39695;DHT22;25367;-35.352;149.036;2022-12-18T10:57:33;25.20;45.40
39695;DHT22;25367;-35.352;149.036;2022-12-18T11:00:22;25.20;45.40
39695;DHT22;25367;-35.352;149.036;2022-12-18T11:02:53;25.20;45.30
39695;DHT22;25367;-35.352;149.036;2022-12-18T11:05:32;25.20;45.80
39695;DHT22;25367;-35.352;149.036;2022-12-18T11:08:02;25.30;46.50
39695;DHT22;25367;-35.352;149.036;2022-12-18T11:10:33;25.20;45.90
39695;DHT22;25367;-35.352;149.036;2022-12-18T11:13:12;25.20;46.00
39695;DHT22;25367;-35.352;149.036;2022-12-18T11:15:42;25.30;46.00
39695;DHT22;25367;-35.352;149.036;2022-12-18T11:18:20;25.20;46.00
39695;DHT22;25367;-35.352;149.036;2022-12-18T11:20:58;25.30;46.00
39695;DHT22;25367;-35.352;149.036;2022-12-18T11:23:29;25.30;46.00
39695;DHT22;25367;-35.352;149.036;2022-12-18T11:25:59;25.20;46.00
39695;DHT22;25367;-35.352;149.036;2022-12-18T11:28:36;25.20;46.00
39695;DHT22;25367;-35.352;149.036;2022-12-18T11:31:24;25.30;46.00
39695;DHT22;25367;-35.352;149.036;2022-12-18T11:34:11;25.30;45.90
39695;DHT22;25367;-35.352;149.036;2022-12-18T11:36:45;25.30;45.90
39695;DHT22;25367;-35.352;149.036;2022-12-18T11:39:21;25.20;46.00
39695;DHT22;25367;-35.352;149.036;2022-12-18T11:41:56;25.20;46.00
39695;DHT22;25367;-35.352;149.036;2022-12-18T11:44:26;25.20;46.00
39695;DHT22;25367;-35.352;149.036;2022-12-18T11:47:00;25.10;45.90
39695;DHT22;25367;-35.352;149.036;2022-12-18T11:49:34;25.10;46.20
39695;DHT22;25367;-35.352;149.036;2022-12-18T11:52:13;25.10;46.10
39695;DHT22;25367;-35.352;149.036;2022-12-18T11:54:44;25.20;46.10
39695;DHT22;25367;-35.352;149.036;2022-12-18T11:57:22;25.20;46.10
39695;DHT22;25367;-35.352;149.036;2022-12-18T11:59:59;25.10;45.90
39695;DHT22;25367;-35.352;149.036;2022-12-18T12:02:48;25.20;46.00
39695;DHT22;25367;-35.352;149.036;2022-12-18T12:05:32;25.20;45.90
39695;DHT22;25367;-35.352;149.036;2022-12-18T12:08:15;25.10;45.90
39695;DHT22;25367;-35.352;149.036;2022-12-18T12:10:53;25.10;45.90
39695;DHT22;25367;-35.352;149.036;2022-12-18T12:13:34;25.10;45.90
39695;DHT22;25367;-35.352;149.036;2022-12-18T12:16:15;25.10;45.90
39695;DHT22;25367;-35.352;149.036;2022-12-18T12:19:06;25.10;45.90
39695;DHT22;25367;-35.352;149.036;2022-12-18T12:21:39;25.10;45.80
39695;DHT22;25367;-35.352;149.036;2022-12-18T12:24:26;25.00;45.80
39695;DHT22;25367;-35.352;149.036;2022-12-18T12:27:03;25.00;46.00
39695;DHT22;25367;-35.352;149.036;2022-12-18T12:29:46;25.00;46.00
39695;DHT22;25367;-35.352;149.036;2022-12-18T12:32:27;25.00;45.90
39695;DHT22;25367;-35.352;149.036;2022-12-18T12:35:08;25.00;45.90
39695;DHT22;25367;-35.352;149.036;2022-12-18T12:37:46;25.00;45.80
39695;DHT22;25367;-35.352;149.036;2022-12-18T12:40:19;25.00;45.80
39695;DHT22;25367;-35.352;149.036;2022-12-18T12:42:53;25.00;45.80
39695;DHT22;25367;-35.352;149.036;2022-12-18T12:45:28;24.90;45.80
39695;DHT22;25367;-35.352;149.036;2022-12-18T12:47:59;24.90;45.80
39695;DHT22;25367;-35.352;149.036;2022-12-18T12:50:34;24.90;45.80
39695;DHT22;25367;-35.352;149.036;2022-12-18T12:53:08;24.90;45.80
39695;DHT22;25367;-35.352;149.036;2022-12-18T12:55:42;24.90;45.70
39695;DHT22;25367;-35.352;149.036;2022-12-18T12:58:16;24.90;45.80
39695;DHT22;25367;-35.352;149.036;2022-12-18T13:00:54;24.90;45.70
39695;DHT22;25367;-35.352;149.036;2022-12-18T13:03:35;24.80;45.70
39695;DHT22;25367;-35.352;149.036;2022-12-18T13:06:12;24.80;45.70
39695;DHT22;25367;-35.352;149.036;2022-12-18T13:08:55;24.80;45.70
39695;DHT22;25367;-35.352;149.036;2022-12-18T13:11:37;24.80;45.60
39695;DHT22;25367;-35.352;149.036;2022-12-18T13:14:22;24.70;45.60
39695;DHT22;25367;-35.352;149.036;2022-12-18T13:16:52;24.70;45.60
39695;DHT22;25367;-35.352;149.036;2022-12-18T13:19:42;24.70;45.60
39695;DHT22;25367;-35.352;149.036;2022-12-18T13:22:23;24.70;45.70
39695;DHT22;25367;-35.352;149.036;2022-12-18T13:24:53;24.70;45.60
39695;DHT22;25367;-35.352;149.036;2022-12-18T13:27:56;24.60;45.60
39695;DHT22;25367;-35.352;149.036;2022-12-18T13:30:59;24.70;45.50
39695;DHT22;25367;-35.352;149.036;2022-12-18T13:33:49;24.60;45.50
39695;DHT22;25367;-35.352;149.036;2022-12-18T13:36:28;24.60;45.50
39695;DHT22;25367;-35.352;149.036;2022-12-18T13:39:33;24.60;45.60
39695;DHT22;25367;-35.352;149.036;2022-12-18T13:42:39;24.60;45.40
39695;DHT22;25367;-35.352;149.036;2022-12-18T13:45:43;24.50;45.40
39695;DHT22;25367;-35.352;149.036;2022-12-18T13:48:19;24.50;45.50
39695;DHT22;25367;-35.352;149.036;2022-12-18T13:51:01;24.50;45.60
39695;DHT22;25367;-35.352;149.036;2022-12-18T13:53:37;24.50;45.50
39695;DHT22;25367;-35.352;149.036;2022-12-18T13:56:07;24.40;45.40
39695;DHT22;25367;-35.352;149.036;2022-12-18T13:58:37;24.40;45.40
39695;DHT22;25367;-35.352;149.036;2022-12-18T14:01:23;24.40;45.40
39695;DHT22;25367;-35.352;149.036;2022-12-18T14:04:10;24.40;45.90
39695;DHT22;25367;-35.352;149.036;2022-12-18T14:06:40;24.40;45.40
39695;DHT22;25367;-35.352;149.036;2022-12-18T14:09:15;24.30;45.40
39695;DHT22;25367;-35.352;149.036;2022-12-18T14:11:48;24.30;45.30
39695;DHT22;25367;-35.352;149.036;2022-12-18T14:14:19;24.30;45.30
39695;DHT22;25367;-35.352;149.036;2022-12-18T14:16:51;24.30;45.30
39695;DHT22;25367;-35.352;149.036;2022-12-18T14:19:21;24.30;45.30
39695;DHT22;25367;-35.352;149.036;2022-12-18T14:21:51;24.30;45.30
39695;DHT22;25367;-35.352;149.036;2022-12-18T14:24:22;24.20;45.30
39695;DHT22;25367;-35.352;149.036;2022-12-18T14:26:52;24.20;45.20
39695;DHT22;25367;-35.352;149.036;2022-12-18T14:29:24;24.20;45.20
39695;DHT22;25367;-35.352;149.036;2022-12-18T14:32:11;24.20;45.20
39695;DHT22;25367;-35.352;149.036;2022-12-18T14:34:41;24.20;45.20
39695;DHT22;25367;-35.352;149.036;2022-12-18T14:37:12;24.10;45.20
39695;DHT22;25367;-35.352;149.036;2022-12-18T14:39:52;24.10;45.30
39695;DHT22;25367;-35.352;149.036;2022-12-18T14:42:22;24.10;45.20
39695;DHT22;25367;-35.352;149.036;2022-12-18T14:44:52;24.10;45.20
39695;DHT22;25367;-35.352;149.036;2022-12-18T14:47:24;24.10;45.20
39695;DHT22;25367;-35.352;149.036;2022-12-18T14:49:53;24.10;45.20
39695;DHT22;25367;-35.352;149.036;2022-12-18T14:52:26;24.10;45.20
39695;DHT22;25367;-35.352;149.036;2022-12-18T14:54:56;24.00;45.20
39695;DHT22;25367;-35.352;149.036;2022-12-18T14:57:28;24.00;45.20
39695;DHT22;25367;-35.352;149.036;2022-12-18T15:00:05;24.00;45.20
39695;DHT22;25367;-35.352;149.036;2022-12-18T15:02:39;24.00;45.20
39695;DHT22;25367;-35.352;149.036;2022-12-18T15:05:16;24.00;45.30
39695;DHT22;25367;-35.352;149.036;2022-12-18T15:07:47;23.90;45.30
39695;DHT22;25367;-35.352;149.036;2022-12-18T15:10:18;23.80;45.40
39695;DHT22;25367;-35.352;149.036;2022-12-18T15:12:49;23.90;45.40
39695;DHT22;25367;-35.352;149.036;2022-12-18T15:15:48;23.90;45.30
39695;DHT22;25367;-35.352;149.036;2022-12-18T15:18:21;23.90;45.20
39695;DHT22;25367;-35.352;149.036;2022-12-18T15:20:53;23.80;45.30
39695;DHT22;25367;-35.352;149.036;2022-12-18T15:23:24;23.80;45.30
39695;DHT22;25367;-35.352;149.036;2022-12-18T15:25:57;23.80;45.20
39695;DHT22;25367;-35.352;149.036;2022-12-18T15:28:29;23.80;45.20